Time;durP1;ratioP1;P1;durP2;ratioP2;P2;SDS_P1;SDS_P2;PMS_P1;PMS_P2;Temp;Humidity;BMP_temperature;BMP_pressure;BME280_temperature;BME280_humidity;BME280_pressure;Samples;Min_cycle;Max_cycle;Signal;HPM_P1;HPM_P2
2022/02/17 00:00:49;;;;;;;1999.90;999.90;;;;;;;6.65;62.27;98024.88;5025846;27;97184;-68
2022/02/17 00:03:17;;;;;;;1999.90;999.90;;;;;;;6.62;63.05;97995.81;5016121;27;100195;-68
2022/02/17 00:05:45;;;;;;;1999.90;999.90;;;;;;;6.52;65.00;98007.34;5022070;27;99221;-68
2022/02/17 00:08:21;;;;;;;1999.90;999.90;;;;;;;6.48;64.31;97987.13;5022502;27;97079;-68
2022/02/17 00:10:49;;;;;;;1999.90;999.90;;;;;;;6.46;64.06;97941.34;5022490;27;97606;-67
2022/02/17 00:13:17;;;;;;;1999.90;999.90;;;;;;;6.38;64.59;97946.69;5021768;27;98777;-68
2022/02/17 00:15:46;;;;;;;1999.90;999.90;;;;;;;6.39;63.91;97964.31;5039891;27;97700;-68
2022/02/17 00:18:21;;;;;;;1999.90;999.90;;;;;;;6.34;64.40;97960.81;5039476;27;96830;-68
2022/02/17 00:20:49;;;;;;;1999.90;999.90;;;;;;;6.37;63.19;97941.44;5022613;27;97584;-69
2022/02/17 00:23:17;;;;;;;1999.90;999.90;;;;;;;6.36;63.25;97942.31;5021823;27;98367;-68
2022/02/17 00:25:46;;;;;;;1999.90;999.90;;;;;;;6.40;63.00;97952.00;5022352;27;97480;-67
2022/02/17 00:28:14;;;;;;;1999.90;999.90;;;;;;;6.45;62.85;97952.81;5039461;27;97348;-68
2022/02/17 00:30:42;;;;;;;1999.90;999.90;;;;;;;6.40;63.84;97966.03;5021057;27;97016;-68
2022/02/17 00:33:10;;;;;;;1999.90;999.90;;;;;;;6.48;62.90;97958.06;5037931;27;98586;-68
2022/02/17 00:35:44;;;;;;;1999.90;999.90;;;;;;;6.48;64.09;97963.34;5039687;27;98241;-68
2022/02/17 00:38:11;;;;;;;1999.90;999.90;;;;;;;6.54;63.34;97971.25;5022546;27;97188;-68
2022/02/17 00:40:39;;;;;;;1999.90;999.90;;;;;;;6.56;63.19;97996.72;5040192;27;97828;-69
2022/02/17 00:43:08;;;;;;;1999.90;999.90;;;;;;;6.44;65.24;98004.75;5020938;27;100683;-68
2022/02/17 00:45:36;;;;;;;1999.90;999.90;;;;;;;6.45;63.93;97989.78;5040049;27;98590;-68
2022/02/17 00:48:04;;;;;;;1999.90;999.90;;;;;;;5.96;100.00;98385.91;5039390;27;98571;-69
2022/02/17 00:50:39;;;;;;;1999.90;999.90;;;;;;;6.27;100.00;97974.06;5021530;27;98948;-69
2022/02/17 00:53:08;;;;;;;1999.90;999.90;;;;;;;5.79;85.07;98013.00;5004937;27;99306;-69
2022/02/17 00:55:35;;;;;;;1999.90;999.90;;;;;;;5.54;81.11;98016.59;5004757;27;99212;-68
2022/02/17 00:58:05;;;;;;;1999.90;999.90;;;;;;;5.48;73.56;98068.47;5004702;27;96807;-69
2022/02/17 01:00:35;;;;;;;1999.90;999.90;;;;;;;5.44;73.21;98080.78;5021514;27;97872;-69
2022/02/17 01:03:07;;;;;;;1999.90;999.90;;;;;;;5.23;73.33;98134.41;5002540;27;98535;-69
2022/02/17 01:05:35;;;;;;;1999.90;999.90;;;;;;;4.93;75.15;98334.63;5021313;27;100537;-68
2022/02/17 01:08:06;;;;;;;1999.90;999.90;;;;;;;-151.59;100.00;55400.94;4507790;27;10431416;-68
2022/02/17 01:14:02;;;;;;;1502.15;752.10;;;;;;;4.93;75.15;98334.63;142563;27;91563039;-68
2022/02/17 01:16:31;;;;;;;1999.90;999.90;;;;;;;9.52;59.52;98222.03;5035609;27;96762;-68
2022/02/17 01:19:07;;;;;;;1999.90;999.90;;;;;;;8.99;60.31;98195.38;5004661;27;97142;-69
2022/02/17 01:21:37;;;;;;;1999.90;999.90;;;;;;;9.38;59.59;98193.91;5021892;27;97686;-68
2022/02/17 01:24:05;;;;;;;1999.90;999.90;;;;;;;9.40;58.67;98194.78;5019952;27;99324;-68
2022/02/17 01:26:33;;;;;;;1999.90;999.90;;;;;;;9.71;57.49;98223.50;5003879;27;96878;-68
2022/02/17 01:29:04;;;;;;;1999.90;999.90;;;;;;;9.36;58.44;98171.81;5022437;27;97267;-67
2022/02/17 01:31:36;;;;;;;1999.90;999.90;;;;;;;9.41;57.98;98162.03;5035817;27;98244;-68
2022/02/17 01:34:09;;;;;;;1999.90;999.90;;;;;;;9.50;58.26;98178.72;5002992;27;100146;-68
2022/02/17 01:36:41;;;;;;;1999.90;999.90;;;;;;;9.84;57.64;98169.28;5019358;27;98447;-68
2022/02/17 01:39:08;;;;;;;1999.90;999.90;;;;;;;9.00;59.77;98173.25;5004505;27;97919;-68
2022/02/17 01:41:38;;;;;;;1999.90;999.90;;;;;;;9.03;59.72;98170.56;5005229;27;98347;-69
2022/02/17 01:44:12;;;;;;;1999.90;999.90;;;;;;;9.18;59.19;98183.59;5020309;27;100700;-68
2022/02/17 01:46:43;;;;;;;1999.90;999.90;;;;;;;9.38;59.21;98159.41;5020672;27;99412;-68
2022/02/17 01:49:12;;;;;;;1999.90;999.90;;;;;;;9.22;59.04;98177.38;5020660;27;97103;-68
2022/02/17 01:51:40;;;;;;;1999.90;999.90;;;;;;;9.47;58.63;98167.22;4736542;27;8651529;-69
2022/02/17 01:54:08;;;;;;;1999.90;999.90;;;;;;;9.88;57.25;98146.22;5021347;27;97372;-68
2022/02/17 01:56:38;;;;;;;1999.90;999.90;;;;;;;9.70;57.98;98138.56;5003512;27;96983;-69
2022/02/17 01:59:09;;;;;;;1999.90;999.90;;;;;;;9.74;57.84;98161.50;5019928;27;96971;-69
2022/02/17 02:01:45;;;;;;;1999.90;999.90;;;;;;;9.82;57.40;98163.13;5000179;27;98392;-69
2022/02/17 02:04:13;;;;;;;1999.90;999.90;;;;;;;10.14;57.01;98125.31;5016544;27;98863;-68
2022/02/17 02:06:43;;;;;;;1999.90;999.90;;;;;;;9.87;57.44;98123.19;5027064;27;395884;-69
2022/02/17 02:09:15;;;;;;;1999.90;999.90;;;;;;;10.00;57.10;98130.91;5004206;27;97475;-68
2022/02/17 02:11:59;;;;;;;1999.90;999.90;;;;;;;10.08;57.03;98152.88;5002517;27;98817;-68
2022/02/17 02:14:28;;;;;;;1999.90;999.90;;;;;;;10.16;55.26;98127.06;5003131;27;98987;-69
2022/02/17 02:17:00;;;;;;;1999.90;999.90;;;;;;;10.30;55.67;98136.53;5021806;27;97551;-68
2022/02/17 02:19:27;;;;;;;1999.90;999.90;;;;;;;10.54;54.85;98093.56;5020411;27;97418;-69
2022/02/17 02:22:00;;;;;;;1999.90;999.90;;;;;;;10.44;54.78;98100.84;5036643;27;97666;-68
2022/02/17 02:24:27;;;;;;;1999.90;999.90;;;;;;;10.53;53.98;98083.81;5019082;27;99117;-68
2022/02/17 02:26:55;;;;;;;1999.90;999.90;;;;;;;10.53;52.83;98038.63;5034677;27;97220;-68
2022/02/17 02:29:26;;;;;;;1999.90;999.90;;;;;;;10.73;50.95;98047.00;5000924;27;97163;-68
2022/02/17 02:31:54;;;;;;;1999.90;999.90;;;;;;;10.86;51.43;98037.84;5035022;27;99624;-68
2022/02/17 02:34:22;;;;;;;1999.90;999.90;;;;;;;10.98;50.88;98042.84;5037220;27;98247;-68
2022/02/17 02:36:52;;;;;;;1999.90;999.90;;;;;;;10.74;50.20;98056.75;5037934;27;98802;-68
2022/02/17 02:39:21;;;;;;;1999.90;999.90;;;;;;;10.85;49.68;98074.19;5023072;27;98066;-69
2022/02/17 02:41:54;;;;;;;1999.90;999.90;;;;;;;10.91;49.04;98082.03;5006116;27;99272;-69
2022/02/17 02:44:21;;;;;;;1999.90;999.90;;;;;;;11.03;49.39;98072.91;5041135;27;97468;-69
2022/02/17 02:46:56;;;;;;;1999.90;999.90;;;;;;;11.10;48.64;98064.72;5021532;27;97512;-69
2022/02/17 02:49:24;;;;;;;1999.90;999.90;;;;;;;11.15;47.90;98070.81;5023360;27;98112;-69
2022/02/17 02:51:52;;;;;;;1999.90;999.90;;;;;;;11.00;46.47;98103.13;5022452;27;98841;-69
2022/02/17 02:54:35;;;;;;;1999.90;999.90;;;;;;;10.90;45.36;98051.00;5004957;27;99390;-69
2022/02/17 02:57:03;;;;;;;1999.90;999.90;;;;;;;11.13;45.19;98075.31;5038857;27;97127;-69
2022/02/17 02:59:31;;;;;;;1999.90;999.90;;;;;;;10.95;44.14;98081.06;5022566;27;98047;-69
2022/02/17 03:02:01;;;;;;;1999.90;999.90;;;;;;;11.19;43.89;98075.16;5035889;27;97129;-68
2022/02/17 03:04:29;;;;;;;1999.90;999.90;;;;;;;11.30;43.58;98096.19;5002938;27;100706;-68
2022/02/17 03:07:05;;;;;;;1999.90;999.90;;;;;;;11.41;43.07;98040.06;5004141;27;97367;-67
2022/02/17 03:09:39;;;;;;;1999.90;999.90;;;;;;;11.31;43.26;98039.41;5005200;27;97035;-69
2022/02/17 03:12:07;;;;;;;1999.90;999.90;;;;;;;11.29;43.15;98043.00;5040480;27;97572;-68
2022/02/17 03:14:35;;;;;;;1999.90;999.90;;;;;;;11.27;43.09;98029.69;5022215;27;98227;-68
2022/02/17 03:17:03;;;;;;;1999.90;999.90;;;;;;;11.38;43.03;98027.69;5005056;27;99008;-67
2022/02/17 03:19:31;;;;;;;1999.90;999.90;;;;;;;11.40;42.24;98025.84;5008076;27;97151;-68
2022/02/17 03:21:59;;;;;;;1999.90;999.90;;;;;;;11.35;41.75;98038.41;5022433;27;100660;-68
2022/02/17 03:24:30;;;;;;;1999.90;999.90;;;;;;;11.34;42.02;98073.94;5005561;27;99632;-68
2022/02/17 03:26:59;;;;;;;1999.90;999.90;;;;;;;11.29;42.07;98049.19;5036969;27;98015;-68
2022/02/17 03:29:27;;;;;;;1999.90;999.90;;;;;;;11.38;41.77;98053.44;5021907;27;97757;-69
2022/02/17 03:31:59;;;;;;;1999.90;999.90;;;;;;;11.38;41.52;98059.63;5021331;27;97741;-68
2022/02/17 03:34:27;;;;;;;1999.90;999.90;;;;;;;11.42;41.51;98079.94;5021456;27;97695;-68
2022/02/17 03:36:55;;;;;;;1999.90;999.90;;;;;;;11.33;40.28;98125.44;5039384;27;97796;-68
2022/02/17 03:39:23;;;;;;;1999.90;999.90;;;;;;;11.23;41.05;98044.03;5022075;27;96872;-68
2022/02/17 03:42:13;;;;;;;1999.90;999.90;;;;;;;11.07;40.69;98064.81;5005086;27;99306;-70
2022/02/17 03:44:41;;;;;;;1999.90;999.90;;;;;;;11.28;40.64;98063.41;5021257;27;100496;-68
2022/02/17 03:47:15;;;;;;;1999.90;999.90;;;;;;;11.20;40.61;98049.41;5038063;27;98258;-69
2022/02/17 03:49:51;;;;;;;1999.90;999.90;;;;;;;11.07;40.73;98074.56;5005816;27;96921;-68
2022/02/17 03:52:19;;;;;;;1999.90;999.90;;;;;;;11.12;40.86;98155.19;5006965;27;99696;-69
2022/02/17 03:55:07;;;;;;;1999.90;999.90;;;;;;;10.41;49.13;98252.41;5024191;27;100278;-68
2022/02/17 03:57:36;;;;;;;1999.90;999.90;;;;;;;9.50;59.16;98220.31;5025408;27;97712;-69
2022/02/17 04:00:07;;;;;;;1999.90;999.90;;;;;;;8.70;57.45;98330.06;5023547;27;97770;-68
2022/02/17 04:02:44;;;;;;;1999.90;999.90;;;;;;;8.38;57.93;98200.53;5024120;27;97860;-67
2022/02/17 04:05:14;;;;;;;1999.90;999.90;;;;;;;8.14;57.68;98240.53;5024172;27;99532;-68
2022/02/17 04:07:42;;;;;;;1999.90;999.90;;;;;;;4.12;69.03;98219.19;5008535;27;96819;-68
2022/02/17 04:10:21;;;;;;;1999.90;999.90;;;;;;;3.54;70.22;98240.66;5041454;27;97397;-68
2022/02/17 04:12:50;;;;;;;1999.90;999.90;;;;;;;3.27;69.83;98219.41;5025475;27;97624;-68
2022/02/17 04:15:18;;;;;;;1999.90;999.90;;;;;;;3.15;72.07;98256.94;5008479;27;99510;-67
2022/02/17 04:17:46;;;;;;;1999.90;999.90;;;;;;;3.22;71.26;98231.63;5041828;27;97837;-67
2022/02/17 04:20:20;;;;;;;1999.90;999.90;;;;;;;3.12;72.21;98249.03;5008312;27;97212;-68
2022/02/17 04:23:21;;;;;;;1999.90;999.90;;;;;;;3.05;71.92;98272.59;5007936;27;98717;-68
2022/02/17 04:25:53;;;;;;;1999.90;999.90;;;;;;;3.18;73.31;98319.16;5009498;27;99665;-68
2022/02/17 04:28:44;;;;;;;1999.90;999.90;;;;;;;3.25;71.92;98286.81;5025099;27;96805;-67
2022/02/17 04:31:14;;;;;;;1999.90;999.90;;;;;;;3.40;72.03;98336.91;5009001;27;96922;-68
2022/02/17 04:33:45;;;;;;;1999.90;999.90;;;;;;;3.39;70.43;98314.13;5023368;27;98831;-68
2022/02/17 04:36:19;;;;;;;1999.90;999.90;;;;;;;3.58;69.72;98308.19;5024812;27;99208;-68
2022/02/17 04:38:48;;;;;;;1999.90;999.90;;;;;;;3.55;70.40;98305.50;5025007;27;97120;-67
2022/02/17 04:44:11;;;;;;;1999.90;999.90;;;;;;;3.62;69.00;98299.47;5024045;27;96937;-68
2022/02/17 04:46:42;;;;;;;1999.90;999.90;;;;;;;3.66;67.74;98298.63;5039761;27;97880;-68
2022/02/17 04:49:11;;;;;;;1999.90;999.90;;;;;;;3.85;68.25;98311.09;5024622;27;97119;-68
2022/02/17 04:51:39;;;;;;;1999.90;999.90;;;;;;;3.99;66.34;98303.28;5043274;27;97954;-67
2022/02/17 04:54:13;;;;;;;1999.90;999.90;;;;;;;4.04;66.64;98328.75;5007326;27;98890;-68
2022/02/17 04:56:44;;;;;;;1999.90;999.90;;;;;;;4.06;62.79;98342.81;5024518;27;99092;-68
2022/02/17 04:59:16;;;;;;;1999.90;999.90;;;;;;;4.02;62.94;98361.22;5025019;27;97990;-67
2022/02/17 05:01:47;;;;;;;1999.90;999.90;;;;;;;4.11;65.01;98354.28;5019812;27;96934;-68
2022/02/17 05:04:29;;;;;;;1999.90;999.90;;;;;;;4.14;63.51;98377.09;5022372;27;100309;-67
2022/02/17 05:07:04;;;;;;;1999.90;999.90;;;;;;;4.20;63.21;98362.25;5018257;27;99809;-67
2022/02/17 05:09:32;;;;;;;1999.90;999.90;;;;;;;4.27;61.38;98363.16;5022543;27;97315;-68
2022/02/17 05:12:01;;;;;;;1999.90;999.90;;;;;;;4.24;59.35;98369.28;5024915;27;96926;-68
2022/02/17 05:14:33;;;;;;;1999.90;999.90;;;;;;;4.24;58.13;98356.13;5008964;27;99997;-68
2022/02/17 05:17:00;;;;;;;1999.90;999.90;;;;;;;4.37;56.44;98372.00;5023058;27;98745;-67
2022/02/17 05:19:31;;;;;;;1999.90;999.90;;;;;;;4.39;55.43;98380.81;5019326;27;98180;-67
2022/02/17 05:22:17;;;;;;;1999.90;999.90;;;;;;;4.48;55.19;98394.91;5040825;27;97336;-67
2022/02/17 05:25:10;;;;;;;1999.90;999.90;;;;;;;4.59;54.31;98358.13;5009487;27;97885;-67
2022/02/17 05:27:55;;;;;;;1999.90;999.90;;;;;;;4.65;53.91;98397.66;5007387;27;98019;-67
2022/02/17 05:30:24;;;;;;;1999.90;999.90;;;;;;;4.69;53.64;98376.63;5042323;27;97709;-67
2022/02/17 05:33:12;;;;;;;1999.90;999.90;;;;;;;4.80;53.81;98376.69;5023430;27;97930;-68
2022/02/17 05:36:15;;;;;;;1999.90;999.90;;;;;;;4.86;53.19;98398.69;4976627;28;97876;-67
2022/02/17 05:39:01;;;;;;;1999.90;999.90;;;;;;;4.89;52.14;98374.09;5016398;27;98453;-67
2022/02/17 05:41:50;;;;;;;1999.90;999.90;;;;;;;4.91;51.92;98403.97;5036252;27;97892;-67
2022/02/17 05:44:18;;;;;;;1999.90;999.90;;;;;;;4.98;51.75;98371.50;5037057;27;98031;-68
2022/02/17 05:46:47;;;;;;;1999.90;999.90;;;;;;;5.07;51.86;98400.56;5037533;27;98910;-67
2022/02/17 05:49:15;;;;;;;1999.90;999.90;;;;;;;5.07;50.92;98429.56;5038514;27;98808;-67
2022/02/17 05:51:43;;;;;;;1999.90;999.90;;;;;;;5.06;50.60;98422.53;5038341;27;97462;-67
2022/02/17 05:54:11;;;;;;;1999.90;999.90;;;;;;;5.06;51.56;98417.28;5019803;27;97798;-67
2022/02/17 05:56:42;;;;;;;1999.90;999.90;;;;;;;5.07;51.11;98450.66;5020350;27;99485;-67
2022/02/17 05:59:09;;;;;;;1999.90;999.90;;;;;;;5.05;50.67;98432.19;5033818;27;99014;-67
2022/02/17 06:01:37;;;;;;;1999.90;999.90;;;;;;;5.02;51.09;98441.81;5014564;27;99589;-67
2022/02/17 06:04:06;;;;;;;1999.90;999.90;;;;;;;5.03;50.80;98419.88;5034925;27;97972;-67
2022/02/17 06:06:36;;;;;;;1999.90;999.90;;;;;;;5.00;50.18;98417.19;5035543;27;97886;-68
2022/02/17 06:09:06;;;;;;;1999.90;999.90;;;;;;;4.98;50.24;98440.91;5037659;27;97595;-67
2022/02/17 06:11:34;;;;;;;1999.90;999.90;;;;;;;4.90;46.30;98436.47;5019933;27;97172;-67
2022/02/17 06:14:08;;;;;;;1999.90;999.90;;;;;;;4.91;48.31;98427.69;5036790;27;97986;-67
2022/02/17 06:16:36;;;;;;;1999.90;999.90;;;;;;;5.05;50.32;98439.22;5036200;27;97973;-67
2022/02/17 06:19:03;;;;;;;1999.90;999.90;;;;;;;5.03;48.70;98459.41;5035728;27;97802;-67
2022/02/17 06:21:32;;;;;;;1999.90;999.90;;;;;;;5.05;50.09;98449.75;5037166;27;98288;-67
2022/02/17 06:24:00;;;;;;;1999.90;999.90;;;;;;;5.10;49.61;98435.72;5019245;27;98017;-68
2022/02/17 06:26:27;;;;;;;1999.90;999.90;;;;;;;5.08;49.27;98436.59;5019233;27;98049;-67
2022/02/17 06:28:55;;;;;;;1999.90;999.90;;;;;;;5.02;49.50;98440.09;5019879;27;98862;-67
2022/02/17 06:31:23;;;;;;;1999.90;999.90;;;;;;;4.99;49.01;98460.25;5018720;27;97563;-68
2022/02/17 06:33:52;;;;;;;1999.90;999.90;;;;;;;4.98;48.06;98433.00;5017722;27;97225;-70
2022/02/17 06:36:20;;;;;;;1999.90;999.90;;;;;;;5.02;48.14;98462.88;5037079;27;98709;-67
2022/02/17 06:38:49;;;;;;;1999.90;999.90;;;;;;;4.94;47.63;98497.09;5038033;27;98040;-67
2022/02/17 06:41:20;;;;;;;1999.90;999.90;;;;;;;5.00;48.88;98489.22;5028259;27;97205;-68
2022/02/17 06:43:48;;;;;;;1999.90;999.90;;;;;;;4.97;47.33;98478.66;4992161;27;100988;-68
2022/02/17 06:46:16;;;;;;;1999.90;999.90;;;;;;;5.08;48.60;98505.13;4999532;27;97187;-68
2022/02/17 06:48:44;;;;;;;1999.90;999.90;;;;;;;5.03;47.57;98498.94;5014562;27;100993;-67
2022/02/17 06:51:13;;;;;;;1999.90;999.90;;;;;;;5.00;47.80;98543.69;5016099;27;98639;-68
2022/02/17 06:53:41;;;;;;;1999.90;999.90;;;;;;;5.09;48.32;98520.06;4997685;27;98437;-68
2022/02/17 06:56:13;;;;;;;1999.90;999.90;;;;;;;5.11;48.45;98520.97;5015392;27;100535;-68
2022/02/17 06:58:41;;;;;;;1999.90;999.90;;;;;;;5.06;47.89;98538.50;5015106;27;98695;-68
2022/02/17 07:01:08;;;;;;;1999.90;999.90;;;;;;;4.98;46.93;98506.78;4999937;27;97344;-68
2022/02/17 07:03:36;;;;;;;1999.90;999.90;;;;;;;5.01;47.83;98550.72;5018927;27;97265;-68
2022/02/17 07:06:06;;;;;;;1999.90;999.90;;;;;;;4.92;44.83;98482.13;5017827;27;99471;-68
2022/02/17 07:08:34;;;;;;;1999.90;999.90;;;;;;;5.01;47.96;98542.81;5004569;27;97003;-68
2022/02/17 07:11:03;;;;;;;1999.90;999.90;;;;;;;4.98;46.22;98648.19;5002516;27;97854;-68
2022/02/17 07:13:33;;;;;;;1999.90;999.90;;;;;;;4.95;46.29;98551.56;5003478;27;97099;-68
2022/02/17 07:16:01;;;;;;;1999.90;999.90;;;;;;;5.03;47.25;98555.16;4996430;27;100847;-68
2022/02/17 07:18:29;;;;;;;1999.90;999.90;;;;;;;5.01;46.98;98585.00;4998287;27;97628;-67
2022/02/17 07:20:57;;;;;;;1999.90;999.90;;;;;;;5.04;47.09;98566.59;5036525;27;97609;-67
2022/02/17 07:23:26;;;;;;;1999.90;999.90;;;;;;;5.02;47.02;98557.75;5036700;27;96823;-67
2022/02/17 07:25:55;;;;;;;1999.90;999.90;;;;;;;5.06;47.24;98564.84;5021831;27;97768;-68
2022/02/17 07:28:25;;;;;;;1999.90;999.90;;;;;;;5.00;45.73;98580.56;5023017;27;97520;-68
2022/02/17 07:30:55;;;;;;;1999.90;999.90;;;;;;;4.96;46.57;98598.13;5037279;27;98148;-68
2022/02/17 07:33:24;;;;;;;1999.90;999.90;;;;;;;4.99;45.40;98642.06;5004800;27;96910;-68
2022/02/17 07:35:52;;;;;;;1999.90;999.90;;;;;;;5.02;45.34;98584.09;5004902;27;103382;-68
2022/02/17 07:38:40;;;;;;;1999.90;999.90;;;;;;;5.02;45.94;98603.47;5021575;27;99429;-68
2022/02/17 07:41:08;;;;;;;1999.90;999.90;;;;;;;5.10;46.36;98616.72;5038452;27;97379;-67
2022/02/17 07:43:36;;;;;;;1999.90;999.90;;;;;;;5.13;46.41;98625.53;5020202;27;97722;-68
2022/02/17 07:46:05;;;;;;;1999.90;999.90;;;;;;;5.17;45.08;98650.19;5019956;27;97614;-68
2022/02/17 07:48:33;;;;;;;1999.90;999.90;;;;;;;5.31;46.60;98605.44;5021807;27;98920;-68
2022/02/17 07:51:01;;;;;;;1999.90;999.90;;;;;;;5.30;45.84;98636.22;5006111;27;97993;-68
2022/02/17 07:53:29;;;;;;;1999.90;999.90;;;;;;;5.32;46.46;98602.81;5003848;27;96912;-69
2022/02/17 07:55:58;;;;;;;1999.90;999.90;;;;;;;5.29;45.96;98642.34;5020645;27;97889;-68
2022/02/17 07:58:26;;;;;;;1999.90;999.90;;;;;;;5.38;46.03;98657.34;5021156;27;99488;-68
2022/02/17 08:00:54;;;;;;;1999.90;999.90;;;;;;;5.36;45.72;98649.44;5019221;27;98550;-68
2022/02/17 08:03:23;;;;;;;1999.90;999.90;;;;;;;5.39;45.68;98691.69;5004375;27;98581;-68
2022/02/17 08:05:51;;;;;;;1999.90;999.90;;;;;;;5.35;44.78;98674.06;5021588;27;98622;-68
2022/02/17 08:08:37;;;;;;;1999.90;999.90;;;;;;;5.30;43.81;98653.78;5022364;27;97550;-69
2022/02/17 08:11:05;;;;;;;1999.90;999.90;;;;;;;5.43;45.91;98674.13;5023781;27;100116;-68
2022/02/17 08:13:33;;;;;;;1999.90;999.90;;;;;;;5.43;45.70;98677.63;5005306;27;96852;-68
2022/02/17 08:16:01;;;;;;;1999.90;999.90;;;;;;;5.51;43.88;98728.69;5021070;27;99746;-68
2022/02/17 08:18:30;;;;;;;1999.90;999.90;;;;;;;5.52;44.41;98709.34;5022382;27;96947;-69
2022/02/17 08:20:58;;;;;;;1999.90;999.90;;;;;;;5.60;45.37;98725.22;5018826;27;97934;-69
2022/02/17 08:23:30;;;;;;;1999.90;999.90;;;;;;;5.52;43.64;98698.78;5006746;27;96899;-68
2022/02/17 08:26:00;;;;;;;1999.90;999.90;;;;;;;5.41;44.10;98741.78;5038785;27;98097;-68
2022/02/17 08:28:28;;;;;;;1999.90;999.90;;;;;;;5.46;44.29;98713.69;5005978;27;101425;-69
2022/02/17 08:30:56;;;;;;;1999.90;999.90;;;;;;;5.13;41.03;98719.53;5004528;27;98798;-68
2022/02/17 08:33:24;;;;;;;1999.90;999.90;;;;;;;5.34;43.68;98722.38;5004610;27;97443;-69
2022/02/17 08:35:53;;;;;;;1999.90;999.90;;;;;;;5.31;42.15;98735.53;5002203;27;96987;-68
2022/02/17 08:38:21;;;;;;;1999.90;999.90;;;;;;;5.40;44.63;98701.34;5020337;27;99678;-68
2022/02/17 08:40:49;;;;;;;1999.90;999.90;;;;;;;5.42;44.40;98704.88;5040653;27;98640;-68
2022/02/17 08:43:18;;;;;;;1999.90;999.90;;;;;;;5.39;44.37;98728.59;5021391;27;97727;-67
2022/02/17 08:45:46;;;;;;;1999.90;999.90;;;;;;;5.26;40.52;98725.81;5036405;27;97526;-67
2022/02/17 08:48:15;;;;;;;1999.90;999.90;;;;;;;5.39;44.63;98723.31;5018254;27;98364;-67
2022/02/17 08:50:44;;;;;;;1999.90;999.90;;;;;;;5.43;44.96;98726.88;5020566;27;97772;-67
2022/02/17 08:53:13;;;;;;;1999.90;999.90;;;;;;;5.33;43.53;98717.97;5021369;27;97153;-67
2022/02/17 08:55:53;;;;;;;1999.90;999.90;;;;;;;5.33;42.59;98688.97;5003297;27;99774;-67
2022/02/17 08:58:21;;;;;;;1999.90;999.90;;;;;;;5.45;44.51;98723.34;5021222;27;99038;-69
2022/02/17 09:00:49;;;;;;;1999.90;999.90;;;;;;;5.35;43.49;98794.47;5037760;27;98270;-69
2022/02/17 09:03:17;;;;;;;1999.90;999.90;;;;;;;5.35;43.89;98674.06;5017885;27;98272;-69
2022/02/17 09:05:45;;;;;;;1999.90;999.90;;;;;;;5.37;44.00;98737.34;5002420;27;98562;-67
2022/02/17 09:08:34;;;;;;;1999.90;999.90;;;;;;;5.34;43.03;98772.47;5002477;27;99510;-68
2022/02/17 09:11:03;;;;;;;1999.90;999.90;;;;;;;5.43;43.73;98805.97;5016243;27;97064;-68
2022/02/17 09:13:31;;;;;;;1999.90;999.90;;;;;;;5.56;43.75;98785.00;5014474;27;97696;-68
2022/02/17 09:15:59;;;;;;;1999.90;999.90;;;;;;;5.47;43.54;98808.66;5035471;27;97852;-68
2022/02/17 09:18:28;;;;;;;1999.90;999.90;;;;;;;5.47;43.09;98773.47;5020740;27;99422;-68
2022/02/17 09:20:55;;;;;;;1999.90;999.90;;;;;;;5.52;43.18;98796.38;5001970;27;96874;-68
2022/02/17 09:23:24;;;;;;;1999.90;999.90;;;;;;;5.53;43.55;98794.63;5021508;27;98208;-68
2022/02/17 09:25:54;;;;;;;1999.90;999.90;;;;;;;5.50;43.42;98821.88;5020687;27;98386;-67
2022/02/17 09:28:21;;;;;;;1999.90;999.90;;;;;;;5.55;43.44;98843.91;5038404;27;97958;-67
2022/02/17 09:30:50;;;;;;;1999.90;999.90;;;;;;;5.50;43.07;98843.00;5036823;27;98025;-68
2022/02/17 09:33:17;;;;;;;1999.90;999.90;;;;;;;5.56;43.91;98844.78;5035467;27;97537;-68
2022/02/17 09:35:45;;;;;;;1999.90;999.90;;;;;;;5.58;43.61;98837.75;5021292;27;99149;-68
2022/02/17 09:38:15;;;;;;;1999.90;999.90;;;;;;;5.51;41.94;98880.78;5040261;27;98733;-68
2022/02/17 09:40:45;;;;;;;1999.90;999.90;;;;;;;5.56;43.38;98855.31;5039156;27;96991;-69
2022/02/17 09:43:16;;;;;;;1999.90;999.90;;;;;;;5.62;43.17;98874.75;5007916;27;97241;-68
2022/02/17 09:45:44;;;;;;;1999.90;999.90;;;;;;;5.65;43.38;98889.75;5040562;27;97978;-68
2022/02/17 09:48:12;;;;;;;1999.90;999.90;;;;;;;5.63;43.27;98881.78;5020240;27;99279;-67
2022/02/17 09:50:40;;;;;;;1999.90;999.90;;;;;;;5.67;42.30;98940.75;5038367;27;96897;-67
2022/02/17 09:53:09;;;;;;;1999.90;999.90;;;;;;;5.56;42.51;98926.53;5041658;27;97647;-68
2022/02/17 09:55:40;;;;;;;1999.90;999.90;;;;;;;5.62;43.05;98889.69;5041500;27;99240;-68
2022/02/17 09:58:09;;;;;;;1999.90;999.90;;;;;;;5.56;42.69;98919.53;5022089;27;98779;-67
2022/02/17 10:00:40;;;;;;;1999.90;999.90;;;;;;;5.58;42.67;98901.97;5025029;27;97699;-67
2022/02/17 10:03:22;;;;;;;1999.90;999.90;;;;;;;5.58;40.75;98898.44;5041594;27;97286;-69
2022/02/17 10:06:07;;;;;;;1999.90;999.90;;;;;;;5.55;39.51;98928.31;5022778;27;97338;-68
2022/02/17 10:08:35;;;;;;;1999.90;999.90;;;;;;;5.49;40.97;98925.59;5023281;27;98758;-68
2022/02/17 10:11:04;;;;;;;1999.90;999.90;;;;;;;5.51;43.06;98989.81;5041622;27;98874;-69
2022/02/17 10:13:31;;;;;;;1999.90;999.90;;;;;;;5.45;42.27;98926.44;5040673;27;97861;-68
2022/02/17 10:16:01;;;;;;;1999.90;999.90;;;;;;;5.28;39.59;98996.56;5043256;27;97664;-68
2022/02/17 10:18:30;;;;;;;1999.90;999.90;;;;;;;5.38;42.38;98958.88;5042549;27;99006;-68
2022/02/17 10:21:03;;;;;;;1999.90;999.90;;;;;;;5.46;43.84;98987.97;5008216;27;97690;-68
2022/02/17 10:23:32;;;;;;;1999.90;999.90;;;;;;;5.37;41.45;99004.59;5040328;27;97630;-68
2022/02/17 10:26:05;;;;;;;1999.90;999.90;;;;;;;5.42;42.51;99017.81;5022990;27;99512;-68
2022/02/17 10:28:35;;;;;;;1999.90;999.90;;;;;;;5.40;42.71;99003.72;5024403;27;97893;-68
2022/02/17 10:31:07;;;;;;;1999.90;999.90;;;;;;;5.37;43.56;98978.22;5023001;27;97229;-69
2022/02/17 10:33:42;;;;;;;1999.90;999.90;;;;;;;5.34;42.27;98993.97;5022564;27;97829;-68
2022/02/17 10:36:11;;;;;;;1999.90;999.90;;;;;;;5.26;43.43;99000.03;5020814;27;99911;-67
2022/02/17 10:38:40;;;;;;;1999.90;999.90;;;;;;;5.22;44.13;99030.72;5040075;27;98921;-68
2022/02/17 10:41:10;;;;;;;1999.90;999.90;;;;;;;5.18;44.36;99042.09;5042365;27;97833;-68
2022/02/17 10:43:37;;;;;;;1999.90;999.90;;;;;;;5.22;44.01;99022.81;5041925;27;97229;-67
2022/02/17 10:46:09;;;;;;;1999.90;999.90;;;;;;;5.11;42.63;99043.75;5022578;27;99241;-68
2022/02/17 10:48:38;;;;;;;1999.90;999.90;;;;;;;5.19;43.79;99083.44;5024168;27;98685;-67
2022/02/17 10:51:08;;;;;;;1999.90;999.90;;;;;;;5.18;43.60;99061.44;5042300;27;97383;-68
2022/02/17 10:53:40;;;;;;;1999.90;999.90;;;;;;;5.19;44.12;99059.69;5023481;27;98317;-68
2022/02/17 10:56:10;;;;;;;1999.90;999.90;;;;;;;5.08;42.58;99069.19;5039307;27;97036;-68
2022/02/17 10:58:43;;;;;;;1999.90;999.90;;;;;;;5.05;44.09;99077.03;5022953;27;97185;-68
2022/02/17 11:01:12;;;;;;;1999.90;999.90;;;;;;;5.02;44.24;99082.22;5045484;27;97848;-67
2022/02/17 11:03:40;;;;;;;1999.90;999.90;;;;;;;5.02;44.47;99090.13;5026756;27;97203;-68
2022/02/17 11:06:10;;;;;;;1999.90;999.90;;;;;;;4.91;44.18;99115.44;5026164;27;99689;-67
2022/02/17 11:08:39;;;;;;;1999.90;999.90;;;;;;;4.85;44.83;99096.88;5028256;27;100895;-68
2022/02/17 11:11:07;;;;;;;1999.90;999.90;;;;;;;4.78;45.29;99109.06;5045584;27;96752;-67
2022/02/17 11:13:35;;;;;;;1999.90;999.90;;;;;;;4.65;45.78;99117.59;5025564;27;97011;-68
2022/02/17 11:16:09;;;;;;;1999.90;999.90;;;;;;;4.51;45.89;99110.31;5040506;27;99605;-68
2022/02/17 11:18:41;;;;;;;1999.90;999.90;;;;;;;4.40;46.19;99132.91;5026914;27;98349;-67
2022/02/17 11:21:14;;;;;;;1999.90;999.90;;;;;;;4.35;46.29;99158.28;5027446;27;99128;-67